sensor_id;sensor_type;location;lat;lon;timestamp;noise_LAeq;noise_LA_min;noise_LA_max;noise_LA01;noise_LA95
37833;Laerm;23678;48.778;9.160;2024-03-08T00:00:29;37.34;32.35;40.98;;
37833;Laerm;23678;48.778;9.160;2024-03-08T00:03:16;37.21;31.68;40.03;;
37833;Laerm;23678;48.778;9.160;2024-03-08T00:06:00;37.58;29.92;40.62;;
37833;Laerm;23678;48.778;9.160;2024-03-08T00:08:44;38.06;33.44;42.03;;
37833;Laerm;23678;48.778;9.160;2024-03-08T00:11:28;37.24;31.68;40.23;;
37833;Laerm;23678;48.778;9.160;2024-03-08T00:14:12;38.82;32.35;51.14;;
37833;Laerm;23678;48.778;9.160;2024-03-08T00:16:56;37.94;31.68;41.89;;
37833;Laerm;23678;48.778;9.160;2024-03-08T00:19:40;37.73;32.35;44.27;;
37833;Laerm;23678;48.778;9.160;2024-03-08T00:22:25;37.22;30.89;40.13;;
37833;Laerm;23678;48.778;9.160;2024-03-08T00:25:09;37.21;31.68;41.14;;
37833;Laerm;23678;48.778;9.160;2024-03-08T00:27:53;37.26;31.68;40.23;;
37833;Laerm;23678;48.778;9.160;2024-03-08T00:30:40;37.30;31.68;42.47;;
37833;Laerm;23678;48.778;9.160;2024-03-08T00:33:26;38.56;30.89;51.69;;
37833;Laerm;23678;48.778;9.160;2024-03-08T00:36:11;37.17;30.89;40.03;;
37833;Laerm;23678;48.778;9.160;2024-03-08T00:38:55;38.05;31.68;48.23;;
37833;Laerm;23678;48.778;9.160;2024-03-08T00:41:39;37.16;31.68;40.23;;
37833;Laerm;23678;48.778;9.160;2024-03-08T00:44:23;37.12;31.68;39.92;;
37833;Laerm;23678;48.778;9.160;2024-03-08T00:47:08;37.07;30.89;40.23;;
37833;Laerm;23678;48.778;9.160;2024-03-08T00:53:10;38.41;32.35;50.35;;
37833;Laerm;23678;48.778;9.160;2024-03-08T00:55:55;37.13;32.35;40.03;;
37833;Laerm;23678;48.778;9.160;2024-03-08T00:58:39;37.52;32.35;43.49;;
37833;Laerm;23678;48.778;9.160;2024-03-08T01:01:24;37.68;33.44;42.03;;
37833;Laerm;23678;48.778;9.160;2024-03-08T01:04:08;37.23;31.68;40.27;;
37833;Laerm;23678;48.778;9.160;2024-03-08T01:06:52;37.53;31.68;42.71;;
37833;Laerm;23678;48.778;9.160;2024-03-08T01:09:36;38.41;31.68;48.63;;
37833;Laerm;23678;48.778;9.160;2024-03-08T01:12:20;37.19;30.89;40.53;;
37833;Laerm;23678;48.778;9.160;2024-03-08T01:15:05;37.33;31.68;41.68;;
37833;Laerm;23678;48.778;9.160;2024-03-08T01:17:49;38.21;32.35;45.20;;
37833;Laerm;23678;48.778;9.160;2024-03-08T01:20:33;37.97;31.68;48.98;;
37833;Laerm;23678;48.778;9.160;2024-03-08T01:23:17;38.65;31.68;47.20;;
37833;Laerm;23678;48.778;9.160;2024-03-08T01:26:01;37.09;31.68;39.81;;
37833;Laerm;23678;48.778;9.160;2024-03-08T01:28:45;37.27;32.35;41.14;;
37833;Laerm;23678;48.778;9.160;2024-03-08T01:31:29;37.64;31.68;43.04;;
37833;Laerm;23678;48.778;9.160;2024-03-08T01:34:13;38.51;32.35;45.33;;
37833;Laerm;23678;48.778;9.160;2024-03-08T01:36:57;37.17;31.68;41.46;;
37833;Laerm;23678;48.778;9.160;2024-03-08T01:39:41;37.14;31.68;39.70;;
37833;Laerm;23678;48.778;9.160;2024-03-08T01:42:25;37.20;32.35;39.81;;
37833;Laerm;23678;48.778;9.160;2024-03-08T01:45:09;38.79;32.35;52.17;;
37833;Laerm;23678;48.778;9.160;2024-03-08T01:47:53;37.29;32.35;40.23;;
37833;Laerm;23678;48.778;9.160;2024-03-08T01:50:38;37.39;32.35;42.47;;
37833;Laerm;23678;48.778;9.160;2024-03-08T01:53:23;37.16;31.68;39.81;;
37833;Laerm;23678;48.778;9.160;2024-03-08T01:56:07;37.25;31.68;41.53;;
37833;Laerm;23678;48.778;9.160;2024-03-08T01:58:52;37.23;32.35;40.98;;
37833;Laerm;23678;48.778;9.160;2024-03-08T02:01:36;40.40;31.68;55.85;;
37833;Laerm;23678;48.778;9.160;2024-03-08T02:04:20;37.19;32.35;39.70;;
37833;Laerm;23678;48.778;9.160;2024-03-08T02:07:05;37.20;30.89;40.23;;
37833;Laerm;23678;48.778;9.160;2024-03-08T02:09:49;37.39;31.68;40.62;;
37833;Laerm;23678;48.778;9.160;2024-03-08T02:12:34;37.36;31.68;41.53;;
37833;Laerm;23678;48.778;9.160;2024-03-08T02:15:18;37.26;31.68;40.03;;
37833;Laerm;23678;48.778;9.160;2024-03-08T02:18:03;37.42;32.35;43.28;;
37833;Laerm;23678;48.778;9.160;2024-03-08T02:23:32;37.26;32.35;40.13;;
37833;Laerm;23678;48.778;9.160;2024-03-08T02:26:16;40.21;31.68;58.33;;
37833;Laerm;23678;48.778;9.160;2024-03-08T02:29:00;37.38;32.93;41.61;;
37833;Laerm;23678;48.778;9.160;2024-03-08T02:31:45;39.71;31.68;55.71;;
37833;Laerm;23678;48.778;9.160;2024-03-08T02:34:28;39.88;32.93;54.19;;
37833;Laerm;23678;48.778;9.160;2024-03-08T02:37:15;37.25;32.35;40.13;;
37833;Laerm;23678;48.778;9.160;2024-03-08T02:39:59;37.22;32.35;40.03;;
37833;Laerm;23678;48.778;9.160;2024-03-08T02:42:43;37.62;31.68;43.39;;
37833;Laerm;23678;48.778;9.160;2024-03-08T02:45:27;37.30;31.68;42.98;;
37833;Laerm;23678;48.778;9.160;2024-03-08T02:48:11;37.30;31.68;41.38;;
37833;Laerm;23678;48.778;9.160;2024-03-08T02:50:55;37.31;32.35;40.23;;
37833;Laerm;23678;48.778;9.160;2024-03-08T02:53:39;37.25;32.35;41.46;;
37833;Laerm;23678;48.778;9.160;2024-03-08T02:56:23;37.22;30.89;40.03;;
37833;Laerm;23678;48.778;9.160;2024-03-08T02:59:08;37.23;30.89;39.92;;
37833;Laerm;23678;48.778;9.160;2024-03-08T03:01:52;37.24;30.89;40.13;;
37833;Laerm;23678;48.778;9.160;2024-03-08T03:04:36;37.17;32.35;40.53;;
37833;Laerm;23678;48.778;9.160;2024-03-08T03:07:20;37.24;32.00;40.54;;
37833;Laerm;23678;48.778;9.160;2024-03-08T03:10:04;39.04;31.68;52.92;;
37833;Laerm;23678;48.778;9.160;2024-03-08T03:12:48;37.24;32.93;40.43;;
37833;Laerm;23678;48.778;9.160;2024-03-08T03:15:32;37.29;30.89;41.38;;
37833;Laerm;23678;48.778;9.160;2024-03-08T03:18:17;37.41;32.93;40.43;;
37833;Laerm;23678;48.778;9.160;2024-03-08T03:21:05;37.65;33.44;45.17;;
37833;Laerm;23678;48.778;9.160;2024-03-08T03:23:51;37.77;32.93;41.06;;
37833;Laerm;23678;48.778;9.160;2024-03-08T03:26:36;38.04;33.44;42.76;;
37833;Laerm;23678;48.778;9.160;2024-03-08T03:29:24;37.54;33.90;40.89;;
37833;Laerm;23678;48.778;9.160;2024-03-08T03:32:09;37.56;32.93;40.13;;
37833;Laerm;23678;48.778;9.160;2024-03-08T03:34:53;38.30;33.90;42.59;;
37833;Laerm;23678;48.778;9.160;2024-03-08T03:37:37;37.75;33.44;40.53;;
37833;Laerm;23678;48.778;9.160;2024-03-08T03:40:22;37.88;32.93;42.76;;
37833;Laerm;23678;48.778;9.160;2024-03-08T03:43:09;39.17;33.44;51.20;;
37833;Laerm;23678;48.778;9.160;2024-03-08T03:45:56;37.94;33.44;41.06;;
37833;Laerm;23678;48.778;9.160;2024-03-08T03:48:40;42.39;33.90;58.35;;
37833;Laerm;23678;48.778;9.160;2024-03-08T03:51:26;39.91;33.90;52.04;;
37833;Laerm;23678;48.778;9.160;2024-03-08T03:54:10;37.88;33.90;41.75;;
37833;Laerm;23678;48.778;9.160;2024-03-08T03:56:54;37.63;33.44;40.62;;
37833;Laerm;23678;48.778;9.160;2024-03-08T03:59:39;37.88;31.68;43.77;;
37833;Laerm;23678;48.778;9.160;2024-03-08T04:02:24;38.62;32.93;42.41;;
37833;Laerm;23678;48.778;9.160;2024-03-08T04:05:09;38.36;32.93;42.76;;
37833;Laerm;23678;48.778;9.160;2024-03-08T04:07:53;38.10;33.44;41.46;;
37833;Laerm;23678;48.778;9.160;2024-03-08T04:10:37;38.97;34.31;42.59;;
37833;Laerm;23678;48.778;9.160;2024-03-08T04:13:21;38.79;32.35;46.13;;
37833;Laerm;23678;48.778;9.160;2024-03-08T04:16:05;38.15;33.90;41.75;;
37833;Laerm;23678;48.778;9.160;2024-03-08T04:18:52;39.54;34.31;50.19;;
37833;Laerm;23678;48.778;9.160;2024-03-08T04:21:36;39.00;31.68;47.70;;
37833;Laerm;23678;48.778;9.160;2024-03-08T04:24:20;37.90;33.44;41.75;;
37833;Laerm;23678;48.778;9.160;2024-03-08T04:27:04;42.23;34.31;56.47;;
37833;Laerm;23678;48.778;9.160;2024-03-08T04:29:48;38.98;34.31;48.61;;
37833;Laerm;23678;48.778;9.160;2024-03-08T04:32:32;39.79;33.44;50.01;;
37833;Laerm;23678;48.778;9.160;2024-03-08T04:35:16;39.74;33.90;50.66;;
37833;Laerm;23678;48.778;9.160;2024-03-08T04:38:00;40.02;32.35;50.14;;
37833;Laerm;23678;48.778;9.160;2024-03-08T04:40:44;39.98;33.44;51.14;;
37833;Laerm;23678;48.778;9.160;2024-03-08T04:43:28;40.32;32.93;51.42;;
37833;Laerm;23678;48.778;9.160;2024-03-08T04:46:13;40.52;33.90;52.61;;
37833;Laerm;23678;48.778;9.160;2024-03-08T04:48:57;39.93;34.31;49.04;;
37833;Laerm;23678;48.778;9.160;2024-03-08T04:51:42;40.04;34.31;49.98;;
37833;Laerm;23678;48.778;9.160;2024-03-08T04:54:28;39.14;33.97;45.66;;
37833;Laerm;23678;48.778;9.160;2024-03-08T04:57:12;41.86;33.44;56.32;;
37833;Laerm;23678;48.778;9.160;2024-03-08T04:59:56;44.30;34.31;59.18;;
37833;Laerm;23678;48.778;9.160;2024-03-08T05:02:41;43.79;33.44;56.93;;
37833;Laerm;23678;48.778;9.160;2024-03-08T05:05:25;43.63;35.04;56.51;;
37833;Laerm;23678;48.778;9.160;2024-03-08T05:08:11;44.24;32.35;56.77;;
37833;Laerm;23678;48.778;9.160;2024-03-08T05:10:55;42.45;35.04;56.22;;
37833;Laerm;23678;48.778;9.160;2024-03-08T05:13:40;39.26;33.90;44.58;;
37833;Laerm;23678;48.778;9.160;2024-03-08T05:16:24;41.99;34.31;61.22;;
37833;Laerm;23678;48.778;9.160;2024-03-08T05:19:08;41.80;34.31;63.11;;
37833;Laerm;23678;48.778;9.160;2024-03-08T05:21:52;38.30;34.31;43.04;;
37833;Laerm;23678;48.778;9.160;2024-03-08T05:24:36;38.96;35.04;45.11;;
37833;Laerm;23678;48.778;9.160;2024-03-08T05:27:20;41.11;35.36;54.63;;
37833;Laerm;23678;48.778;9.160;2024-03-08T05:30:04;38.52;34.31;43.55;;
37833;Laerm;23678;48.778;9.160;2024-03-08T05:32:49;39.47;33.90;49.55;;
37833;Laerm;23678;48.778;9.160;2024-03-08T05:35:33;40.03;35.04;49.34;;
37833;Laerm;23678;48.778;9.160;2024-03-08T05:38:17;40.39;35.04;57.72;;
37833;Laerm;23678;48.778;9.160;2024-03-08T05:41:01;40.93;35.36;52.70;;
37833;Laerm;23678;48.778;9.160;2024-03-08T05:43:44;39.19;34.69;44.39;;
37833;Laerm;23678;48.778;9.160;2024-03-08T05:46:28;44.81;35.36;62.40;;
37833;Laerm;23678;48.778;9.160;2024-03-08T05:49:12;41.55;35.86;55.05;;
37833;Laerm;23678;48.778;9.160;2024-03-08T05:51:57;39.11;34.31;43.49;;
37833;Laerm;23678;48.778;9.160;2024-03-08T05:54:41;39.75;33.44;51.15;;
37833;Laerm;23678;48.778;9.160;2024-03-08T05:57:25;39.67;32.93;51.12;;
37833;Laerm;23678;48.778;9.160;2024-03-08T06:00:09;39.85;34.31;51.24;;
37833;Laerm;23678;48.778;9.160;2024-03-08T06:02:59;41.11;34.31;54.71;;
37833;Laerm;23678;48.778;9.160;2024-03-08T06:05:43;41.49;33.44;55.84;;
37833;Laerm;23678;48.778;9.160;2024-03-08T06:08:26;41.34;35.66;57.17;;
37833;Laerm;23678;48.778;9.160;2024-03-08T06:11:18;41.89;35.94;51.73;;
37833;Laerm;23678;48.778;9.160;2024-03-08T06:14:02;41.39;34.69;54.67;;
37833;Laerm;23678;48.778;9.160;2024-03-08T06:16:46;41.96;35.01;53.17;;
37833;Laerm;23678;48.778;9.160;2024-03-08T06:19:30;41.62;35.66;57.20;;
37833;Laerm;23678;48.778;9.160;2024-03-08T06:22:14;43.74;35.04;60.08;;
37833;Laerm;23678;48.778;9.160;2024-03-08T06:24:58;42.00;35.66;54.12;;
37833;Laerm;23678;48.778;9.160;2024-03-08T06:27:43;41.15;35.36;55.55;;
37833;Laerm;23678;48.778;9.160;2024-03-08T06:30:27;41.18;35.36;50.09;;
37833;Laerm;23678;48.778;9.160;2024-03-08T06:33:11;41.28;35.04;57.25;;
37833;Laerm;23678;48.778;9.160;2024-03-08T06:35:55;42.44;36.20;57.33;;
37833;Laerm;23678;48.778;9.160;2024-03-08T06:38:42;41.29;35.36;52.83;;
37833;Laerm;23678;48.778;9.160;2024-03-08T06:41:29;41.04;36.20;51.93;;
37833;Laerm;23678;48.778;9.160;2024-03-08T06:44:14;42.33;35.36;51.67;;
37833;Laerm;23678;48.778;9.160;2024-03-08T06:46:58;42.73;36.69;54.05;;
37833;Laerm;23678;48.778;9.160;2024-03-08T06:49:42;41.82;35.66;58.03;;
37833;Laerm;23678;48.778;9.160;2024-03-08T06:52:27;40.98;35.94;58.59;;
37833;Laerm;23678;48.778;9.160;2024-03-08T06:55:11;41.18;35.66;51.14;;
37833;Laerm;23678;48.778;9.160;2024-03-08T06:57:55;41.01;35.66;52.28;;
37833;Laerm;23678;48.778;9.160;2024-03-08T07:00:39;41.42;36.20;50.93;;
37833;Laerm;23678;48.778;9.160;2024-03-08T07:03:23;43.48;36.91;55.95;;
37833;Laerm;23678;48.778;9.160;2024-03-08T07:06:07;40.95;34.69;50.56;;
37833;Laerm;23678;48.778;9.160;2024-03-08T07:08:51;42.03;34.69;54.94;;
37833;Laerm;23678;48.778;9.160;2024-03-08T07:11:35;41.24;35.04;52.34;;
37833;Laerm;23678;48.778;9.160;2024-03-08T07:14:23;40.50;34.31;51.98;;
37833;Laerm;23678;48.778;9.160;2024-03-08T07:17:07;41.56;35.36;52.82;;
37833;Laerm;23678;48.778;9.160;2024-03-08T07:19:55;41.45;35.59;51.17;;
37833;Laerm;23678;48.778;9.160;2024-03-08T07:22:39;40.99;35.66;59.60;;
37833;Laerm;23678;48.778;9.160;2024-03-08T07:25:23;41.19;36.45;48.25;;
37833;Laerm;23678;48.778;9.160;2024-03-08T07:28:07;42.30;37.35;52.08;;
37833;Laerm;23678;48.778;9.160;2024-03-08T07:30:51;41.82;34.69;56.05;;
37833;Laerm;23678;48.778;9.160;2024-03-08T07:33:39;40.39;35.94;49.03;;
37833;Laerm;23678;48.778;9.160;2024-03-08T07:36:23;40.10;34.69;48.83;;
37833;Laerm;23678;48.778;9.160;2024-03-08T07:39:07;40.63;35.04;47.55;;
37833;Laerm;23678;48.778;9.160;2024-03-08T07:41:55;39.96;34.31;49.52;;
37833;Laerm;23678;48.778;9.160;2024-03-08T07:44:39;41.09;33.90;51.22;;
37833;Laerm;23678;48.778;9.160;2024-03-08T07:47:23;39.56;32.93;48.74;;
37833;Laerm;23678;48.778;9.160;2024-03-08T07:50:07;41.30;34.31;57.26;;
37833;Laerm;23678;48.778;9.160;2024-03-08T07:52:54;41.34;35.36;54.62;;
37833;Laerm;23678;48.778;9.160;2024-03-08T07:55:38;41.77;35.36;53.46;;
37833;Laerm;23678;48.778;9.160;2024-03-08T07:58:23;38.85;32.35;53.81;;
37833;Laerm;23678;48.778;9.160;2024-03-08T08:01:07;41.33;34.31;50.89;;
37833;Laerm;23678;48.778;9.160;2024-03-08T08:03:52;39.51;33.44;50.19;;
37833;Laerm;23678;48.778;9.160;2024-03-08T08:06:36;39.69;34.31;45.30;;
37833;Laerm;23678;48.778;9.160;2024-03-08T08:09:21;41.39;35.04;49.57;;
37833;Laerm;23678;48.778;9.160;2024-03-08T08:12:18;42.70;37.32;54.71;;
37833;Laerm;23678;48.778;9.160;2024-03-08T08:15:02;39.55;33.90;52.89;;
37833;Laerm;23678;48.778;9.160;2024-03-08T08:17:46;40.14;34.69;47.86;;
37833;Laerm;23678;48.778;9.160;2024-03-08T08:20:31;40.21;34.31;50.39;;
37833;Laerm;23678;48.778;9.160;2024-03-08T08:23:15;39.75;35.04;47.44;;
37833;Laerm;23678;48.778;9.160;2024-03-08T08:25:59;39.66;32.93;47.65;;
37833;Laerm;23678;48.778;9.160;2024-03-08T08:28:43;41.99;35.94;48.51;;
37833;Laerm;23678;48.778;9.160;2024-03-08T08:31:30;40.79;34.69;47.76;;
37833;Laerm;23678;48.778;9.160;2024-03-08T08:34:16;40.17;34.69;46.50;;
37833;Laerm;23678;48.778;9.160;2024-03-08T08:37:02;41.25;33.44;50.21;;
37833;Laerm;23678;48.778;9.160;2024-03-08T08:39:46;41.28;35.66;60.27;;
37833;Laerm;23678;48.778;9.160;2024-03-08T08:42:31;41.68;35.36;60.95;;
37833;Laerm;23678;48.778;9.160;2024-03-08T08:45:16;41.36;35.94;48.58;;
37833;Laerm;23678;48.778;9.160;2024-03-08T08:48:01;41.25;35.36;50.13;;
37833;Laerm;23678;48.778;9.160;2024-03-08T08:50:45;39.35;33.90;45.54;;
37833;Laerm;23678;48.778;9.160;2024-03-08T08:53:30;40.45;35.04;51.33;;
37833;Laerm;23678;48.778;9.160;2024-03-08T08:56:14;40.75;35.36;47.34;;
37833;Laerm;23678;48.778;9.160;2024-03-08T08:58:59;40.66;34.69;50.62;;
37833;Laerm;23678;48.778;9.160;2024-03-08T09:01:43;54.97;32.93;71.09;;
37833;Laerm;23678;48.778;9.160;2024-03-08T09:04:27;41.14;32.93;50.34;;
37833;Laerm;23678;48.778;9.160;2024-03-08T09:07:12;40.31;35.36;51.08;;
37833;Laerm;23678;48.778;9.160;2024-03-08T09:09:57;41.02;34.31;51.25;;
37833;Laerm;23678;48.778;9.160;2024-03-08T09:12:42;40.46;33.55;48.73;;
37833;Laerm;23678;48.778;9.160;2024-03-08T09:15:26;40.23;33.90;49.17;;
37833;Laerm;23678;48.778;9.160;2024-03-08T09:18:11;39.64;33.90;45.42;;
37833;Laerm;23678;48.778;9.160;2024-03-08T09:20:56;41.02;34.69;47.84;;
37833;Laerm;23678;48.778;9.160;2024-03-08T09:23:41;40.33;34.31;48.54;;
37833;Laerm;23678;48.778;9.160;2024-03-08T09:26:25;40.10;32.35;50.02;;
37833;Laerm;23678;48.778;9.160;2024-03-08T09:29:09;40.48;33.90;59.39;;
37833;Laerm;23678;48.778;9.160;2024-03-08T09:31:54;40.46;34.69;54.78;;
37833;Laerm;23678;48.778;9.160;2024-03-08T09:34:39;40.00;33.44;50.68;;
37833;Laerm;23678;48.778;9.160;2024-03-08T09:37:24;41.07;35.36;50.92;;
37833;Laerm;23678;48.778;9.160;2024-03-08T09:40:08;40.19;35.04;48.45;;
37833;Laerm;23678;48.778;9.160;2024-03-08T09:42:59;41.14;35.66;59.35;;
37833;Laerm;23678;48.778;9.160;2024-03-08T09:45:43;39.58;33.44;59.13;;
37833;Laerm;23678;48.778;9.160;2024-03-08T09:48:30;44.78;34.69;68.73;;
37833;Laerm;23678;48.778;9.160;2024-03-08T09:51:14;39.47;33.44;52.89;;
37833;Laerm;23678;48.778;9.160;2024-03-08T09:53:59;38.56;34.31;46.52;;
37833;Laerm;23678;48.778;9.160;2024-03-08T09:56:43;40.01;33.90;49.92;;
37833;Laerm;23678;48.778;9.160;2024-03-08T09:59:29;42.82;36.45;55.45;;
37833;Laerm;23678;48.778;9.160;2024-03-08T10:02:16;40.83;37.12;56.19;;
37833;Laerm;23678;48.778;9.160;2024-03-08T10:05:00;41.47;36.69;55.16;;
37833;Laerm;23678;48.778;9.160;2024-03-08T10:07:46;41.72;35.04;62.73;;
37833;Laerm;23678;48.778;9.160;2024-03-08T10:10:30;41.26;33.90;68.73;;
37833;Laerm;23678;48.778;9.160;2024-03-08T10:13:14;42.29;33.90;57.86;;
37833;Laerm;23678;48.778;9.160;2024-03-08T10:16:00;39.59;34.34;49.38;;
37833;Laerm;23678;48.778;9.160;2024-03-08T10:18:45;40.63;35.94;50.77;;
37833;Laerm;23678;48.778;9.160;2024-03-08T10:21:29;40.38;35.36;50.07;;
37833;Laerm;23678;48.778;9.160;2024-03-08T10:24:13;40.76;34.31;53.39;;
37833;Laerm;23678;48.778;9.160;2024-03-08T10:27:01;40.50;33.90;59.41;;
37833;Laerm;23678;48.778;9.160;2024-03-08T10:29:48;41.38;35.04;56.25;;
37833;Laerm;23678;48.778;9.160;2024-03-08T10:32:32;40.52;34.31;59.94;;
37833;Laerm;23678;48.778;9.160;2024-03-08T10:35:16;41.09;35.94;50.76;;
37833;Laerm;23678;48.778;9.160;2024-03-08T10:38:00;44.03;38.05;55.00;;
37833;Laerm;23678;48.778;9.160;2024-03-08T10:40:53;40.21;33.90;55.23;;
37833;Laerm;23678;48.778;9.160;2024-03-08T10:46:46;40.69;35.04;49.67;;
37833;Laerm;23678;48.778;9.160;2024-03-08T10:49:39;40.33;32.93;46.84;;
37833;Laerm;23678;48.778;9.160;2024-03-08T10:52:27;38.72;32.35;44.23;;
37833;Laerm;23678;48.778;9.160;2024-03-08T10:55:11;38.54;31.68;49.75;;
37833;Laerm;23678;48.778;9.160;2024-03-08T10:57:57;40.39;32.93;51.40;;
37833;Laerm;23678;48.778;9.160;2024-03-08T11:00:41;42.52;33.44;67.34;;
37833;Laerm;23678;48.778;9.160;2024-03-08T11:09:32;39.01;33.90;44.62;;
37833;Laerm;23678;48.778;9.160;2024-03-08T11:12:20;39.64;33.44;52.09;;
37833;Laerm;23678;48.778;9.160;2024-03-08T11:15:11;39.39;33.44;54.71;;
37833;Laerm;23678;48.778;9.160;2024-03-08T11:17:57;41.13;34.31;62.90;;
37833;Laerm;23678;48.778;9.160;2024-03-08T11:20:41;41.26;34.69;51.93;;
37833;Laerm;23678;48.778;9.160;2024-03-08T11:23:26;40.17;32.93;58.95;;
37833;Laerm;23678;48.778;9.160;2024-03-08T11:26:19;40.82;32.93;56.22;;
37833;Laerm;23678;48.778;9.160;2024-03-08T11:34:54;40.66;33.44;54.78;;
37833;Laerm;23678;48.778;9.160;2024-03-08T11:37:38;38.82;32.93;52.39;;
37833;Laerm;23678;48.778;9.160;2024-03-08T11:40:22;39.98;34.69;45.94;;
37833;Laerm;23678;48.778;9.160;2024-03-08T11:43:07;39.53;32.93;48.95;;
37833;Laerm;23678;48.778;9.160;2024-03-08T11:45:51;41.12;33.44;53.60;;
37833;Laerm;23678;48.778;9.160;2024-03-08T11:48:53;40.73;33.90;52.44;;
37833;Laerm;23678;48.778;9.160;2024-03-08T11:51:39;40.38;34.69;49.75;;
37833;Laerm;23678;48.778;9.160;2024-03-08T11:54:23;39.37;33.44;46.43;;
37833;Laerm;23678;48.778;9.160;2024-03-08T11:57:08;39.47;33.44;48.20;;
37833;Laerm;23678;48.778;9.160;2024-03-08T11:59:53;40.98;35.36;49.96;;
37833;Laerm;23678;48.778;9.160;2024-03-08T12:02:37;42.64;34.69;72.82;;
37833;Laerm;23678;48.778;9.160;2024-03-08T12:05:24;41.12;35.04;50.52;;
37833;Laerm;23678;48.778;9.160;2024-03-08T12:08:08;40.65;35.04;48.34;;
37833;Laerm;23678;48.778;9.160;2024-03-08T12:10:56;43.26;35.94;58.09;;
37833;Laerm;23678;48.778;9.160;2024-03-08T12:13:43;41.08;34.69;52.68;;
37833;Laerm;23678;48.778;9.160;2024-03-08T12:16:30;40.55;35.04;52.53;;
37833;Laerm;23678;48.778;9.160;2024-03-08T12:19:14;41.02;34.31;58.89;;
37833;Laerm;23678;48.778;9.160;2024-03-08T12:22:06;41.41;33.44;67.10;;
37833;Laerm;23678;48.778;9.160;2024-03-08T12:25:25;41.97;33.44;56.68;;
37833;Laerm;23678;48.778;9.160;2024-03-08T12:28:07;40.23;32.93;50.89;;
37833;Laerm;23678;48.778;9.160;2024-03-08T12:30:54;40.47;32.35;52.98;;
37833;Laerm;23678;48.778;9.160;2024-03-08T12:33:49;41.32;30.89;56.60;;
37833;Laerm;23678;48.778;9.160;2024-03-08T12:36:34;41.21;33.44;51.58;;
37833;Laerm;23678;48.778;9.160;2024-03-08T12:39:20;38.73;32.35;46.76;;
37833;Laerm;23678;48.778;9.160;2024-03-08T12:42:10;40.22;33.44;50.61;;
37833;Laerm;23678;48.778;9.160;2024-03-08T12:44:54;42.59;33.90;59.34;;
37833;Laerm;23678;48.778;9.160;2024-03-08T12:47:38;40.90;33.44;52.90;;
37833;Laerm;23678;48.778;9.160;2024-03-08T12:50:25;40.14;32.93;46.95;;
37833;Laerm;23678;48.778;9.160;2024-03-08T12:53:09;41.73;34.31;52.83;;
37833;Laerm;23678;48.778;9.160;2024-03-08T12:55:53;40.36;34.69;54.75;;
37833;Laerm;23678;48.778;9.160;2024-03-08T12:58:40;39.96;33.90;57.29;;
37833;Laerm;23678;48.778;9.160;2024-03-08T13:01:24;39.46;32.93;49.97;;
37833;Laerm;23678;48.778;9.160;2024-03-08T13:04:08;39.36;31.68;51.41;;
37833;Laerm;23678;48.778;9.160;2024-03-08T13:06:54;40.28;33.44;55.27;;
37833;Laerm;23678;48.778;9.160;2024-03-08T13:09:39;39.36;30.89;47.79;;
37833;Laerm;23678;48.778;9.160;2024-03-08T13:12:23;40.44;33.44;49.43;;
37833;Laerm;23678;48.778;9.160;2024-03-08T13:15:07;41.50;33.44;54.04;;
37833;Laerm;23678;48.778;9.160;2024-03-08T13:17:53;41.66;34.31;51.56;;
37833;Laerm;23678;48.778;9.160;2024-03-08T13:20:36;40.33;33.44;50.00;;
37833;Laerm;23678;48.778;9.160;2024-03-08T13:23:21;41.08;33.90;49.84;;
37833;Laerm;23678;48.778;9.160;2024-03-08T13:26:06;39.56;28.67;48.90;;
37833;Laerm;23678;48.778;9.160;2024-03-08T13:28:50;39.73;32.35;53.68;;
37833;Laerm;23678;48.778;9.160;2024-03-08T13:31:37;43.42;33.44;60.27;;
37833;Laerm;23678;48.778;9.160;2024-03-08T13:34:21;41.05;33.44;53.02;;
37833;Laerm;23678;48.778;9.160;2024-03-08T13:37:13;39.05;33.44;43.51;;
37833;Laerm;23678;48.778;9.160;2024-03-08T13:39:59;41.07;34.69;49.65;;
37833;Laerm;23678;48.778;9.160;2024-03-08T13:42:43;40.64;34.31;49.64;;
37833;Laerm;23678;48.778;9.160;2024-03-08T13:45:27;40.23;34.69;47.46;;
37833;Laerm;23678;48.778;9.160;2024-03-08T13:48:11;41.07;33.90;49.95;;
37833;Laerm;23678;48.778;9.160;2024-03-08T13:50:56;40.92;35.04;51.71;;
37833;Laerm;23678;48.778;9.160;2024-03-08T13:53:41;39.92;33.44;46.91;;
37833;Laerm;23678;48.778;9.160;2024-03-08T13:56:24;40.66;32.93;54.23;;
37833;Laerm;23678;48.778;9.160;2024-03-08T13:59:08;43.57;35.94;55.09;;
37833;Laerm;23678;48.778;9.160;2024-03-08T14:01:53;40.76;34.31;50.28;;
37833;Laerm;23678;48.778;9.160;2024-03-08T14:04:37;41.11;33.44;50.80;;
37833;Laerm;23678;48.778;9.160;2024-03-08T14:07:21;40.89;34.69;50.57;;
37833;Laerm;23678;48.778;9.160;2024-03-08T14:10:06;40.81;34.31;50.72;;
37833;Laerm;23678;48.778;9.160;2024-03-08T14:12:51;40.77;33.44;53.32;;
37833;Laerm;23678;48.778;9.160;2024-03-08T14:15:35;41.32;32.35;61.12;;
37833;Laerm;23678;48.778;9.160;2024-03-08T14:18:19;40.63;32.93;53.95;;
37833;Laerm;23678;48.778;9.160;2024-03-08T14:21:06;40.53;35.04;50.57;;
37833;Laerm;23678;48.778;9.160;2024-03-08T14:23:51;41.41;33.90;52.50;;
37833;Laerm;23678;48.778;9.160;2024-03-08T14:26:35;41.82;34.31;55.77;;
37833;Laerm;23678;48.778;9.160;2024-03-08T14:29:22;41.46;33.90;52.66;;
37833;Laerm;23678;48.778;9.160;2024-03-08T14:32:07;38.88;32.93;45.59;;
37833;Laerm;23678;48.778;9.160;2024-03-08T14:34:52;42.41;33.44;57.55;;
37833;Laerm;23678;48.778;9.160;2024-03-08T14:37:36;39.99;34.31;49.16;;
37833;Laerm;23678;48.778;9.160;2024-03-08T14:40:21;40.42;34.69;50.00;;
37833;Laerm;23678;48.778;9.160;2024-03-08T14:43:06;41.83;35.94;53.79;;
37833;Laerm;23678;48.778;9.160;2024-03-08T14:45:50;42.07;31.68;55.02;;
37833;Laerm;23678;48.778;9.160;2024-03-08T14:48:34;38.56;33.44;43.90;;
37833;Laerm;23678;48.778;9.160;2024-03-08T14:51:20;40.44;33.44;50.76;;
37833;Laerm;23678;48.778;9.160;2024-03-08T14:54:10;40.41;34.31;50.15;;
37833;Laerm;23678;48.778;9.160;2024-03-08T14:56:53;40.32;33.44;48.02;;
37833;Laerm;23678;48.778;9.160;2024-03-08T14:59:40;40.55;31.68;47.76;;
37833;Laerm;23678;48.778;9.160;2024-03-08T15:02:24;39.74;32.93;59.23;;
37833;Laerm;23678;48.778;9.160;2024-03-08T15:05:08;41.23;35.04;50.33;;
37833;Laerm;23678;48.778;9.160;2024-03-08T15:07:54;39.86;31.68;46.87;;
37833;Laerm;23678;48.778;9.160;2024-03-08T15:10:39;42.79;35.04;54.79;;
37833;Laerm;23678;48.778;9.160;2024-03-08T15:13:24;40.06;34.31;46.66;;
37833;Laerm;23678;48.778;9.160;2024-03-08T15:16:17;40.67;33.90;52.95;;
37833;Laerm;23678;48.778;9.160;2024-03-08T15:19:01;40.75;33.44;50.15;;
37833;Laerm;23678;48.778;9.160;2024-03-08T15:21:46;41.20;35.66;49.16;;
37833;Laerm;23678;48.778;9.160;2024-03-08T15:24:31;40.30;33.44;50.46;;
37833;Laerm;23678;48.778;9.160;2024-03-08T15:27:16;40.77;35.04;48.78;;
37833;Laerm;23678;48.778;9.160;2024-03-08T15:30:00;40.67;33.44;51.49;;
37833;Laerm;23678;48.778;9.160;2024-03-08T15:32:45;40.17;33.44;50.62;;
37833;Laerm;23678;48.778;9.160;2024-03-08T15:35:29;39.30;33.44;51.77;;
37833;Laerm;23678;48.778;9.160;2024-03-08T15:38:15;40.02;32.93;45.66;;
37833;Laerm;23678;48.778;9.160;2024-03-08T15:40:59;41.10;32.93;52.04;;
37833;Laerm;23678;48.778;9.160;2024-03-08T15:43:43;40.17;34.31;47.02;;